createdAt,value
2019-05-01T00:00:56.012Z,102115.42
2019-05-01T00:03:27.643Z,102110.64
2019-05-01T00:06:01.209Z,102110.31
2019-05-01T00:08:32.421Z,102107.63
2019-05-01T00:11:01.989Z,102105.44
2019-05-01T00:13:31.587Z,102099.89
2019-05-01T00:16:01.420Z,102102.30
2019-05-01T00:18:31.197Z,102101.45
2019-05-01T00:21:19.978Z,102097.58
2019-05-01T00:23:49.414Z,102098.44
2019-05-01T00:26:22.438Z,102093.85
2019-05-01T00:28:51.859Z,102087.64
2019-05-01T00:31:21.272Z,102084.75
2019-05-01T00:33:50.715Z,102084.08
2019-05-01T00:36:23.543Z,102078.67
2019-05-01T00:38:52.991Z,102069.21
2019-05-01T00:41:22.824Z,102068.64
2019-05-01T00:43:52.275Z,102063.84
2019-05-01T00:46:23.655Z,102063.69
2019-05-01T00:48:53.521Z,102061.02
2019-05-01T00:51:22.966Z,102060.27
2019-05-01T00:53:52.388Z,102060.69
2019-05-01T00:56:26.284Z,102055.59
2019-05-01T00:58:57.381Z,102050.73
2019-05-01T01:01:28.425Z,102053.19
2019-05-01T01:03:58.270Z,102047.64
2019-05-01T01:06:27.757Z,102050.84
2019-05-01T01:08:57.283Z,102046.44
2019-05-01T01:11:28.553Z,102040.13
2019-05-01T01:14:00.203Z,102035.20
2019-05-01T01:16:29.638Z,102029.88
2019-05-01T01:19:04.942Z,102029.44
2019-05-01T01:21:36.639Z,102029.42
2019-05-01T01:24:06.461Z,102028.25
2019-05-01T01:26:37.888Z,102020.53
2019-05-01T01:29:07.826Z,102017.59
2019-05-01T01:31:37.393Z,102017.11
2019-05-01T01:34:06.905Z,102019.50
2019-05-01T01:36:36.733Z,102016.98
2019-05-01T01:39:07.959Z,102015.84
2019-05-01T01:41:38.092Z,102009.30
2019-05-01T01:44:21.306Z,102018.83
2019-05-01T01:46:54.952Z,102015.63
2019-05-01T01:49:24.445Z,102016.78
2019-05-01T01:51:54.016Z,102005.58
2019-05-01T01:54:23.697Z,102011.04
2019-05-01T01:56:53.358Z,102011.04
2019-05-01T01:59:23.926Z,102004.22
2019-05-01T02:01:57.768Z,102005.06
2019-05-01T02:04:28.927Z,102003.58
2019-05-01T02:06:58.352Z,101997.53
2019-05-01T02:09:28.381Z,101999.52
2019-05-01T02:11:57.878Z,102001.17
2019-05-01T02:14:27.373Z,101991.95
2019-05-01T02:16:56.811Z,102004.05
2019-05-01T02:19:26.370Z,101994.42
2019-05-01T02:21:55.818Z,101990.88
2019-05-01T02:24:25.628Z,101985.42
2019-05-01T02:27:00.152Z,101981.41
2019-05-01T02:29:32.860Z,101981.83
2019-05-01T02:32:02.423Z,101983.56
2019-05-01T02:34:33.675Z,101981.73
2019-05-01T02:37:04.818Z,101975.86
2019-05-01T02:39:36.069Z,101973.98
2019-05-01T02:42:06.451Z,101969.45
2019-05-01T02:44:40.110Z,101973.90
2019-05-01T02:47:14.575Z,101970.71
2019-05-01T02:49:53.308Z,101962.42
2019-05-01T02:52:27.296Z,101963.27
2019-05-01T02:54:59.825Z,101966.66
2019-05-01T02:57:30.197Z,101958.94
2019-05-01T03:00:00.469Z,101957.53
2019-05-01T03:02:30.932Z,101959.72
2019-05-01T03:05:01.427Z,101951.87
2019-05-01T03:07:34.337Z,101961.96
2019-05-01T03:10:09.320Z,101956.23
2019-05-01T03:12:42.176Z,101954.70
2019-05-01T03:15:13.549Z,101955.48
2019-05-01T03:17:55.982Z,101953.81
2019-05-01T03:20:43.637Z,101955.00
2019-05-01T03:23:15.264Z,101959.16
2019-05-01T03:25:45.214Z,101950.66
2019-05-01T03:28:15.078Z,101946.47
2019-05-01T03:30:44.839Z,101942.03
2019-05-01T03:33:14.333Z,101949.22
2019-05-01T03:35:43.843Z,101943.96
2019-05-01T03:38:14.044Z,101945.08
2019-05-01T03:40:43.721Z,101948.12
2019-05-01T03:43:14.096Z,101941.06
2019-05-01T03:45:44.811Z,101942.08
2019-05-01T03:48:14.414Z,101944.48
2019-05-01T03:50:46.909Z,101943.20
2019-05-01T03:53:15.396Z,101939.16
2019-05-01T03:55:44.914Z,101937.48
2019-05-01T03:58:14.841Z,101934.11
2019-05-01T04:00:48.755Z,101930.82
2019-05-01T04:03:26.009Z,101937.58
2019-05-01T04:05:55.886Z,101933.59
2019-05-01T04:08:26.571Z,101926.67
2019-05-01T04:10:56.321Z,101925.91
2019-05-01T04:13:26.029Z,101928.08
2019-05-01T04:15:57.024Z,101930.10
2019-05-01T04:18:27.922Z,101930.80
2019-05-01T04:20:57.697Z,101922.63
2019-05-01T04:23:27.412Z,101922.47
2019-05-01T04:25:57.022Z,101928.03
2019-05-01T04:28:33.958Z,101924.89
2019-05-01T04:31:09.370Z,101923.86
2019-05-01T04:33:40.561Z,101925.84
2019-05-01T04:36:11.761Z,101923.27
2019-05-01T04:38:41.737Z,101925.37
2019-05-01T04:41:11.313Z,101923.83
2019-05-01T04:43:41.191Z,101929.09
2019-05-01T04:46:10.761Z,101923.93
2019-05-01T04:48:40.646Z,101922.96
2019-05-01T04:51:10.728Z,101924.60
2019-05-01T04:53:40.210Z,101923.64
2019-05-01T04:56:09.711Z,101929.64
2019-05-01T04:58:39.409Z,101922.92
2019-05-01T05:01:09.191Z,101922.34
2019-05-01T05:03:38.759Z,101927.11
2019-05-01T05:06:08.717Z,101927.15
2019-05-01T05:08:38.505Z,101929.19
2019-05-01T05:11:09.633Z,101923.65
2019-05-01T05:13:57.346Z,101930.77
2019-05-01T05:16:46.794Z,101934.19
2019-05-01T05:19:16.405Z,101927.03
2019-05-01T05:21:46.153Z,101933.16
2019-05-01T05:24:16.123Z,101934.70
2019-05-01T05:26:46.842Z,101928.44
2019-05-01T05:29:19.688Z,101929.91
2019-05-01T05:31:51.739Z,101936.67
2019-05-01T05:34:22.234Z,101936.39
2019-05-01T05:36:54.327Z,101936.31
2019-05-01T05:39:27.717Z,101932.89
2019-05-01T05:41:57.498Z,101937.88
2019-05-01T05:44:27.287Z,101931.92
2019-05-01T05:46:56.851Z,101937.38
2019-05-01T05:49:26.514Z,101929.09
2019-05-01T05:51:58.309Z,101940.75
2019-05-01T05:54:32.362Z,101939.63
2019-05-01T05:57:04.297Z,101939.81
2019-05-01T05:59:42.234Z,101938.87
2019-05-01T06:02:18.633Z,101935.46
2019-05-01T06:04:53.737Z,101942.97
2019-05-01T06:07:27.465Z,101939.64
2019-05-01T06:10:01.964Z,101939.83
2019-05-01T06:12:49.483Z,101937.80
2019-05-01T06:15:36.720Z,101935.45
2019-05-01T06:18:09.188Z,101933.27
2019-05-01T06:20:40.308Z,101934.97
2019-05-01T06:23:22.455Z,101934.95
2019-05-01T06:26:00.058Z,101931.67
2019-05-01T06:28:29.579Z,101933.33
2019-05-01T06:30:59.830Z,101932.59
2019-05-01T06:33:29.609Z,101931.73
2019-05-01T06:36:00.920Z,101926.20
2019-05-01T06:38:31.472Z,101929.91
2019-05-01T06:41:01.809Z,101932.81
2019-05-01T06:43:35.898Z,101926.80
2019-05-01T06:46:12.946Z,101920.78
2019-05-01T06:48:48.814Z,101923.62
2019-05-01T06:51:37.214Z,101926.89
2019-05-01T06:54:11.389Z,101927.55
2019-05-01T06:56:42.868Z,101929.60
2019-05-01T06:59:13.426Z,101925.48
2019-05-01T07:01:42.934Z,101926.70
2019-05-01T07:04:14.181Z,101921.83
2019-05-01T07:06:44.101Z,101925.02
2019-05-01T07:09:27.114Z,101928.41
2019-05-01T07:11:47.460Z,101927.65
2019-05-01T07:14:17.630Z,101929.52
2019-05-01T07:16:47.548Z,101930.53
2019-05-01T07:19:18.717Z,101929.09
2019-05-01T07:21:48.210Z,101927.86
2019-05-01T07:24:17.813Z,101923.84
2019-05-01T07:26:49.124Z,101926.84
2019-05-01T07:29:22.824Z,101923.02
2019-05-01T07:31:52.355Z,101922.27
2019-05-01T07:34:26.191Z,101922.74
2019-05-01T07:36:53.104Z,101920.93
2019-05-01T07:39:22.603Z,101923.01
2019-05-01T07:41:52.172Z,101926.16
2019-05-01T07:44:23.347Z,101922.02
2019-05-01T07:47:00.729Z,101920.42
2019-05-01T07:49:52.757Z,101918.47
2019-05-01T07:52:21.289Z,101924.76
2019-05-01T07:54:51.577Z,101921.19
2019-05-01T07:57:23.129Z,101918.73
2019-05-01T07:59:52.876Z,101923.28
2019-05-01T08:02:25.762Z,101917.38
2019-05-01T08:04:54.179Z,101923.77
2019-05-01T08:07:27.716Z,101921.51
2019-05-01T08:09:55.325Z,101916.93
2019-05-01T08:12:25.917Z,101912.52
2019-05-01T08:14:55.551Z,101917.42
2019-05-01T08:17:26.702Z,101917.48
2019-05-01T08:19:57.796Z,101918.99
2019-05-01T08:22:32.148Z,101923.61
2019-05-01T08:25:00.169Z,101920.19
2019-05-01T08:27:34.338Z,101924.33
2019-05-01T08:30:06.390Z,101932.92
2019-05-01T08:32:43.656Z,101921.72
2019-05-01T08:35:14.818Z,101927.97
2019-05-01T08:37:44.359Z,101930.25
2019-05-01T08:40:16.023Z,101923.73
2019-05-01T08:42:45.435Z,101928.54
2019-05-01T08:45:16.552Z,101928.26
2019-05-01T08:48:02.644Z,101922.51
2019-05-01T08:50:32.070Z,101924.30
2019-05-01T08:53:01.502Z,101920.38
2019-05-01T08:55:31.885Z,101922.31
2019-05-01T08:58:01.321Z,101921.87
2019-05-01T09:00:35.447Z,101923.92
2019-05-01T09:03:08.607Z,101924.13
2019-05-01T09:05:34.100Z,101924.75
2019-05-01T09:08:03.657Z,101925.91
2019-05-01T09:10:33.229Z,101921.52
2019-05-01T09:13:02.665Z,101926.01
2019-05-01T09:15:32.548Z,101920.58
2019-05-01T09:18:02.350Z,101923.97
2019-05-01T09:20:33.251Z,101923.37
2019-05-01T09:23:02.755Z,101919.52
2019-05-01T09:25:35.245Z,101915.77
2019-05-01T09:28:23.389Z,101918.31
2019-05-01T09:31:06.344Z,101917.16
2019-05-01T09:33:36.090Z,101917.42
2019-05-01T09:36:05.653Z,101918.05
2019-05-01T09:38:35.101Z,101922.16
2019-05-01T09:41:04.658Z,101919.80
2019-05-01T09:43:35.611Z,101911.73
2019-05-01T09:46:05.914Z,101914.17
2019-05-01T09:48:35.413Z,101913.37
2019-05-01T09:51:18.786Z,101914.70
2019-05-01T09:54:05.689Z,101914.75
2019-05-01T09:56:32.810Z,101913.00
2019-05-01T09:59:02.306Z,101906.73
2019-05-01T10:01:33.005Z,101906.39
2019-05-01T10:04:05.502Z,101901.48
2019-05-01T10:06:34.043Z,101901.52
2019-05-01T10:09:04.225Z,101900.05
2019-05-01T10:11:35.985Z,101897.66
2019-05-01T10:14:05.924Z,101898.53
2019-05-01T10:16:35.365Z,101892.64
2019-05-01T10:19:05.983Z,101884.13
2019-05-01T10:21:35.521Z,101892.27
2019-05-01T10:24:05.578Z,101885.94
2019-05-01T10:26:36.654Z,101887.75
2019-05-01T10:29:25.876Z,101884.05
2019-05-01T10:32:05.598Z,101882.00
2019-05-01T10:34:43.062Z,101878.63
2019-05-01T10:37:10.327Z,101880.09
2019-05-01T10:39:39.744Z,101881.50
2019-05-01T10:42:09.215Z,101876.77
2019-05-01T10:44:39.016Z,101869.47
2019-05-01T10:47:08.487Z,101861.58
2019-05-01T10:49:38.002Z,101853.83
2019-05-01T10:52:14.012Z,101856.41
2019-05-01T10:54:38.680Z,101854.89
2019-05-01T10:57:08.097Z,101853.48
2019-05-01T10:59:37.567Z,101849.41
2019-05-01T11:02:08.726Z,101844.16
2019-05-01T11:04:38.182Z,101842.10
2019-05-01T11:07:07.748Z,101845.51
2019-05-01T11:09:37.192Z,101840.37
2019-05-01T11:12:06.613Z,101825.84
2019-05-01T11:14:36.146Z,101831.88
2019-05-01T11:17:05.774Z,101821.03
2019-05-01T11:19:35.205Z,101814.97
2019-05-01T11:22:05.127Z,101815.66
2019-05-01T11:24:34.831Z,101819.94
2019-05-01T11:27:04.334Z,101817.92
2019-05-01T11:29:33.851Z,101811.05
2019-05-01T11:32:20.920Z,101811.41
2019-05-01T11:34:54.530Z,101815.38
2019-05-01T11:37:33.241Z,101815.91
2019-05-01T11:40:07.071Z,101811.34
2019-05-01T11:42:36.635Z,101800.78
2019-05-01T11:45:11.358Z,101797.02
2019-05-01T11:47:40.869Z,101797.45
2019-05-01T11:50:10.913Z,101798.44
2019-05-01T11:52:40.363Z,101801.52
2019-05-01T11:55:09.801Z,101798.05
2019-05-01T11:57:39.248Z,101797.31
2019-05-01T12:00:12.484Z,101794.80
2019-05-01T12:02:41.902Z,101804.72
2019-05-01T12:05:11.643Z,101800.19
2019-05-01T12:07:41.104Z,101795.31
2019-05-01T12:10:10.827Z,101793.89
2019-05-01T12:12:40.356Z,101789.33
2019-05-01T12:15:10.279Z,101790.68
2019-05-01T12:17:47.426Z,101788.30
2019-05-01T12:20:18.819Z,101790.80
2019-05-01T12:22:51.343Z,101782.03
2019-05-01T12:25:19.970Z,101784.98
2019-05-01T12:27:49.397Z,101786.23
2019-05-01T12:30:19.568Z,101778.38
2019-05-01T12:32:48.990Z,101775.91
2019-05-01T12:35:18.648Z,101776.47
2019-05-01T12:37:48.083Z,101776.97
2019-05-01T12:40:19.132Z,101775.17
2019-05-01T12:42:48.727Z,101770.36
2019-05-01T12:45:18.783Z,101768.94
2019-05-01T12:47:50.039Z,101757.91
2019-05-01T12:50:19.956Z,101754.22
2019-05-01T12:53:00.420Z,101754.56
2019-05-01T12:55:31.587Z,101751.72
2019-05-01T12:58:01.078Z,101753.97
2019-05-01T13:00:43.622Z,101752.36
2019-05-01T13:03:13.149Z,101749.88
2019-05-01T13:05:42.583Z,101749.64
2019-05-01T13:08:12.022Z,101746.73
2019-05-01T13:10:41.801Z,101745.67
2019-05-01T13:13:11.434Z,101735.34
2019-05-01T13:15:41.097Z,101727.50
2019-05-01T13:18:10.567Z,101728.52
2019-05-01T13:20:39.994Z,101729.19
2019-05-01T13:23:09.498Z,101726.03
2019-05-01T13:25:38.935Z,101718.95
2019-05-01T13:28:26.606Z,101715.00
2019-05-01T13:31:00.466Z,101707.39
2019-05-01T13:33:29.906Z,101707.30
2019-05-01T13:35:59.316Z,101702.13
2019-05-01T13:38:28.851Z,101707.27
2019-05-01T13:40:58.378Z,101700.69
2019-05-01T13:43:27.868Z,101703.20
2019-05-01T13:45:57.292Z,101701.75
2019-05-01T13:48:26.879Z,101693.51
2019-05-01T13:50:56.372Z,101695.71
2019-05-01T13:53:25.811Z,101688.87
2019-05-01T13:55:55.310Z,101688.47
2019-05-01T13:58:24.820Z,101689.41
2019-05-01T14:00:54.275Z,101685.34
2019-05-01T14:03:23.854Z,101682.73
2019-05-01T14:05:53.338Z,101681.89
2019-05-01T14:08:22.794Z,101684.41
2019-05-01T14:10:52.218Z,101678.38
2019-05-01T14:13:21.677Z,101673.73
2019-05-01T14:15:51.100Z,101672.72
2019-05-01T14:18:20.598Z,101671.10
2019-05-01T14:20:51.756Z,101663.16
2019-05-01T14:23:25.536Z,101658.06
2019-05-01T14:26:05.507Z,101660.69
2019-05-01T14:28:36.336Z,101657.54
2019-05-01T14:31:07.228Z,101658.61
2019-05-01T14:33:36.741Z,101648.41
2019-05-01T14:36:06.242Z,101647.89
2019-05-01T14:38:36.140Z,101648.31
2019-05-01T14:41:05.936Z,101636.05
2019-05-01T14:43:35.478Z,101646.34
2019-05-01T14:46:05.034Z,101635.05
2019-05-01T14:48:34.534Z,101637.45
2019-05-01T14:51:04.036Z,101631.48
2019-05-01T14:53:33.533Z,101634.84
2019-05-01T14:56:03.412Z,101631.25
2019-05-01T14:58:32.844Z,101627.78
2019-05-01T15:01:02.245Z,101626.75
2019-05-01T15:03:31.718Z,101626.98
2019-05-01T15:06:01.121Z,101625.20
2019-05-01T15:08:30.551Z,101620.23
2019-05-01T15:10:59.980Z,101620.73
2019-05-01T15:13:34.096Z,101623.67
2019-05-01T15:16:14.380Z,101616.59
2019-05-01T15:18:48.498Z,101617.05
2019-05-01T15:21:18.004Z,101617.27
2019-05-01T15:23:53.824Z,101615.91
2019-05-01T15:26:20.979Z,101617.58
2019-05-01T15:28:50.476Z,101615.94
2019-05-01T15:31:20.078Z,101613.48
2019-05-01T15:33:49.486Z,101617.39
2019-05-01T15:36:19.361Z,101610.33
2019-05-01T15:38:48.794Z,101613.48
2019-05-01T15:41:28.636Z,101605.00
2019-05-01T15:44:05.448Z,101603.86
2019-05-01T15:46:36.534Z,101607.20
2019-05-01T15:49:06.029Z,101605.55
2019-05-01T15:51:35.622Z,101603.41
2019-05-01T15:54:05.124Z,101609.69
2019-05-01T15:56:34.569Z,101608.48
2019-05-01T15:59:03.982Z,101609.36
2019-05-01T16:01:33.411Z,101620.75
2019-05-01T16:04:02.996Z,101611.02
2019-05-01T16:06:32.436Z,101611.64
2019-05-01T16:09:01.872Z,101608.28
2019-05-01T16:11:32.953Z,101608.16
2019-05-01T16:14:02.465Z,101609.35
2019-05-01T16:16:31.883Z,101605.89
2019-05-01T16:19:01.317Z,101602.75
2019-05-01T16:21:30.758Z,101600.92
2019-05-01T16:24:00.169Z,101597.25
2019-05-01T16:26:29.597Z,101595.74
2019-05-01T16:28:59.042Z,101593.27
2019-05-01T16:31:28.531Z,101593.42
2019-05-01T16:33:58.047Z,101588.33
2019-05-01T16:36:27.488Z,101589.65
2019-05-01T16:39:04.408Z,101596.32
2019-05-01T16:41:33.852Z,101585.33
2019-05-01T16:44:03.339Z,101588.94
2019-05-01T16:46:32.791Z,101583.53
2019-05-01T16:49:02.225Z,101586.47
2019-05-01T16:51:31.674Z,101579.21
2019-05-01T16:54:01.097Z,101580.55
2019-05-01T16:56:33.109Z,101578.08
2019-05-01T16:59:02.903Z,101578.40
2019-05-01T17:01:39.989Z,101574.80
2019-05-01T17:04:17.001Z,101568.14
2019-05-01T17:06:51.311Z,101575.85
2019-05-01T17:09:24.966Z,101576.87
2019-05-01T17:11:59.372Z,101576.22
2019-05-01T17:14:29.474Z,101573.59
2019-05-01T17:16:58.988Z,101567.48
2019-05-01T17:19:28.994Z,101568.30
2019-05-01T17:21:58.409Z,101573.28
2019-05-01T17:24:27.839Z,101570.95
2019-05-01T17:26:57.289Z,101571.23
2019-05-01T17:29:26.722Z,101579.22
2019-05-01T17:31:56.164Z,101576.03
2019-05-01T17:34:30.103Z,101571.39
2019-05-01T17:36:56.799Z,101573.12
2019-05-01T17:39:31.418Z,101571.93
2019-05-01T17:42:02.074Z,101577.05
2019-05-01T17:44:31.992Z,101580.49
2019-05-01T17:47:01.447Z,101582.78
2019-05-01T17:49:30.864Z,101584.39
2019-05-01T17:52:00.323Z,101579.36
2019-05-01T17:54:29.752Z,101583.64
2019-05-01T17:56:59.197Z,101583.05
2019-05-01T17:59:28.717Z,101585.63
2019-05-01T18:02:05.244Z,101586.23
2019-05-01T18:04:35.650Z,101586.39
2019-05-01T18:07:05.212Z,101587.52
2019-05-01T18:09:34.654Z,101586.80
2019-05-01T18:12:04.181Z,101584.52
2019-05-01T18:14:33.625Z,101582.03
2019-05-01T18:17:03.149Z,101581.98
2019-05-01T18:19:32.583Z,101583.06
2019-05-01T18:22:12.259Z,101585.76
2019-05-01T18:24:58.554Z,101587.45
2019-05-01T18:27:31.106Z,101583.84
2019-05-01T18:30:02.180Z,101588.47
2019-05-01T18:32:36.123Z,101586.39
2019-05-01T18:35:08.994Z,101597.38
2019-05-01T18:37:39.021Z,101590.16
2019-05-01T18:40:10.541Z,101590.16
2019-05-01T18:42:40.032Z,101588.18
2019-05-01T18:45:14.659Z,101585.23
2019-05-01T18:47:44.080Z,101591.22
2019-05-01T18:50:13.746Z,101591.23
2019-05-01T18:52:43.216Z,101582.71
2019-05-01T18:55:12.705Z,101585.91
2019-05-01T18:57:42.129Z,101591.42
2019-05-01T19:00:11.743Z,101592.55
2019-05-01T19:02:41.238Z,101591.07
2019-05-01T19:05:10.814Z,101588.64
2019-05-01T19:07:40.319Z,101595.89
2019-05-01T19:10:09.892Z,101593.15
2019-05-01T19:12:39.396Z,101595.68
2019-05-01T19:15:08.988Z,101597.42
2019-05-01T19:17:38.485Z,101603.00
2019-05-01T19:20:08.127Z,101601.97
2019-05-01T19:22:37.624Z,101599.96
2019-05-01T19:25:10.889Z,101597.77
2019-05-01T19:27:38.813Z,101604.75
2019-05-01T19:30:09.742Z,101602.13
2019-05-01T19:32:40.399Z,101610.30
2019-05-01T19:35:10.941Z,101607.56
2019-05-01T19:37:40.436Z,101607.81
2019-05-01T19:40:10.190Z,101609.14
2019-05-01T19:42:40.178Z,101607.77
2019-05-01T19:45:09.887Z,101613.78
2019-05-01T19:47:41.555Z,101609.91
2019-05-01T19:50:11.813Z,101607.17
2019-05-01T19:52:41.249Z,101612.28
2019-05-01T19:55:10.831Z,101614.05
2019-05-01T19:57:40.262Z,101611.26
2019-05-01T20:00:12.241Z,101604.59
2019-05-01T20:02:41.754Z,101599.66
2019-05-01T20:05:11.463Z,101602.27
2019-05-01T20:07:41.339Z,101599.81
2019-05-01T20:10:11.218Z,101603.97
2019-05-01T20:12:40.710Z,101601.73
2019-05-01T20:15:10.572Z,101605.96
2019-05-01T20:17:40.006Z,101594.09
2019-05-01T20:20:09.633Z,101593.83
2019-05-01T20:22:39.070Z,101591.28
2019-05-01T20:25:08.568Z,101587.52
2019-05-01T20:27:40.147Z,101586.05
2019-05-01T20:30:09.603Z,101587.47
2019-05-01T20:32:39.464Z,101590.50
2019-05-01T20:35:09.347Z,101592.51
2019-05-01T20:37:39.148Z,101591.79
2019-05-01T20:40:11.224Z,101593.45
2019-05-01T20:42:40.208Z,101590.47
2019-05-01T20:45:17.429Z,101590.52
2019-05-01T20:47:46.099Z,101587.66
2019-05-01T20:50:14.691Z,101586.41
2019-05-01T20:52:44.109Z,101585.61
2019-05-01T20:55:13.954Z,101578.02
2019-05-01T20:57:45.029Z,101581.66
2019-05-01T21:00:16.937Z,101575.77
2019-05-01T21:02:47.111Z,101578.55
2019-05-01T21:05:18.194Z,101584.30
2019-05-01T21:07:56.592Z,101581.56
2019-05-01T21:10:25.347Z,101579.28
2019-05-01T21:12:55.395Z,101578.64
2019-05-01T21:15:25.162Z,101577.19
2019-05-01T21:17:56.002Z,101573.59
2019-05-01T21:20:25.477Z,101574.46
2019-05-01T21:22:54.921Z,101569.30
2019-05-01T21:25:24.355Z,101569.93
2019-05-01T21:27:54.191Z,101567.14
2019-05-01T21:30:23.906Z,101564.19
2019-05-01T21:32:54.199Z,101567.37
2019-05-01T21:35:24.089Z,101565.43
2019-05-01T21:37:53.540Z,101564.14
2019-05-01T21:40:23.107Z,101566.16
2019-05-01T21:42:55.787Z,101564.26
2019-05-01T21:45:24.129Z,101562.93
2019-05-01T21:47:53.562Z,101559.56
2019-05-01T21:50:26.442Z,101560.79
2019-05-01T21:52:58.077Z,101560.56
2019-05-01T21:55:30.264Z,101560.62
2019-05-01T21:57:58.732Z,101556.23
2019-05-01T22:00:31.920Z,101559.86
2019-05-01T22:03:01.408Z,101567.06
2019-05-01T22:05:34.651Z,101565.91
2019-05-01T22:08:03.974Z,101561.96
2019-05-01T22:10:33.679Z,101564.56
2019-05-01T22:13:05.164Z,101562.47
2019-05-01T22:15:47.034Z,101566.84
2019-05-01T22:18:14.786Z,101560.00
2019-05-01T22:20:48.818Z,101562.20
2019-05-01T22:23:22.010Z,101560.47
2019-05-01T22:25:53.045Z,101557.30
2019-05-01T22:28:35.867Z,101556.00
2019-05-01T22:31:07.064Z,101554.87
2019-05-01T22:33:37.172Z,101559.98
2019-05-01T22:36:07.136Z,101559.95
2019-05-01T22:38:37.225Z,101554.61
2019-05-01T22:41:13.396Z,101559.51
2019-05-01T22:43:43.301Z,101560.26
2019-05-01T22:46:14.755Z,101564.19
2019-05-01T22:48:44.200Z,101562.26
2019-05-01T22:51:21.306Z,101558.52
2019-05-01T22:53:52.357Z,101558.02
2019-05-01T22:56:21.952Z,101556.44
2019-05-01T22:58:51.803Z,101556.48
2019-05-01T23:01:22.308Z,101546.83
2019-05-01T23:03:53.460Z,101545.36
2019-05-01T23:06:23.038Z,101547.44
2019-05-01T23:08:52.968Z,101547.62
2019-05-01T23:11:24.038Z,101548.28
2019-05-01T23:13:53.452Z,101541.09
2019-05-01T23:16:28.696Z,101540.41
2019-05-01T23:18:55.677Z,101539.70
2019-05-01T23:21:25.478Z,101542.58
2019-05-01T23:23:56.790Z,101540.20
2019-05-01T23:26:26.269Z,101541.44
2019-05-01T23:28:55.747Z,101534.91
2019-05-01T23:31:25.194Z,101532.30
2019-05-01T23:33:54.625Z,101532.31
2019-05-01T23:36:24.136Z,101531.95
2019-05-01T23:38:53.552Z,101540.55
2019-05-01T23:41:44.291Z,101533.50
2019-05-01T23:43:58.299Z,101524.42
2019-05-01T23:46:25.734Z,101525.48
2019-05-01T23:48:55.523Z,101524.38
2019-05-01T23:51:28.659Z,101528.59
2019-05-01T23:53:57.098Z,101519.69
2019-05-01T23:56:30.970Z,101518.23
2019-05-01T23:58:58.046Z,101516.44
